San Jose, CA (95101)

4:29 PM PDT on October 24, 2014 (GMT -0700)
North San Jose / 680 & Hostetter | Change Station
CLOSE
Current Station
Personal Weather Station
Location: San Jose, CA
Elevation: 85 ft
Nearby Weather Stations

Elev 85 ft 37.39 °N, 121.88 °W | Updated 50 seconds ago

Scattered Clouds
Scattered Clouds
75.4 °F
Feels Like 78 °F
N
0.0
Wind Variable Wind from SE
Gusts 4.0 mph

Today
High -- | Low -- °F
--% Chance of Precip.
Yesterday
High -- | Low -- °F
Precip. -- in
7:24 AM 6:18 PM
New Moon, 1% visible
Pressure 29.88 in
Visibility 10.0 miles
Clouds Few 1600 ft
Scattered Clouds 25000 ft
Heat Index 78 °F
Dew Point 60 °F
Humidity 59%
Rainfall 0.00 in
Snow Depth Not available.
UV 2 out of 12
Pollen 2.60 out of 12
Ozone Good
PM2.5 Good
Flu Activity Sporadic
METAR KSJC 242253Z 31014KT 10SM FEW016 SCT250 22/14 A2988 RMK AO2 SLP119 T02170139

More Conditions Fewer Conditions

Pressure 29.88 in
Visibility 10.0 miles
Clouds Few 1600 ft
Scattered Clouds 25000 ft
Heat Index 78 °F
Dew Point 60 °F
Humidity 59%
Rainfall 0.00 in
Snow Depth Not available.
UV 2 out of 12
Pollen 2.60 out of 12
Ozone Good
PM2.5 Good
Flu Activity Sporadic
METAR KSJC 242253Z 31014KT 10SM FEW016 SCT250 22/14 A2988 RMK AO2 SLP119 T02170139

More Conditions Fewer Conditions

10-Day Weather Forecast

Almanac

Astronomy

Oct. 24, 2014 Rise Set
Actual Time 7:24 AM PDT 6:18 PM PDT
Civil Twilight 6:57 AM PDT 6:45 PM PDT
Nautical Twilight 6:27 AM PDT 7:15 PM PDT
Astronomical Twilight 5:56 AM PDT 7:45 PM PDT
Moon 8:07 AM PDT 7:03 PM PDT
Length of Visible Light 11h 47m
Length of Day
10h 54m
Tomorrow will be 2m 13s shorter.
New Moon, 1% of the Moon is Illuminated
Today
New Moon
Oct 30
First Quarter
Nov 6
Full
Nov 14
Last Quarter
Nov 22
New

Today's Extremes

State Highs State Lows

Community

WunderPhotos

Upload Photos

1,764,710 photos uploaded!

Nearby

Air Quality

  Air Quality AQ Index Pollutant
Yesterday Good
OZONE
Yesterday Good
PM2.5
Current Good
OZONE
Current Good
PM2.5
Friday Good
NO2
Saturday Good
OZONE
Sunday Good
OZONE
Monday Good
PM2.5
Tuesday Moderate
PM2.5
Wednesday Moderate
PM2.5

Snow Depth

Station Depth Elevation
Leavitt Meadows 0 in 7200 ft
Summit Meadow 0 in 9122 ft
Ward Creek #3 12 in 6750 ft
Adin Mountain 0 in 6200 ft

Earthquake Activity

City Distance Mag. Time & Date
No recent earthquake activity has been reported nearby.
Minimum magnitude displayed is 2.5.

Coastal Water Temperatures

Place Temperature
No Stations Reporting

Nearby Weather Stations